Time;durP1;ratioP1;P1;durP2;ratioP2;P2;SDS_P1;SDS_P2;PMS_P1;PMS_P2;Temp;Humidity;BMP_temperature;BMP_pressure;BME280_temperature;BME280_humidity;BME280_pressure;Samples;Min_cycle;Max_cycle;Signal;HPM_P1;HPM_P2
2022/06/23 00:01:50;;;;;;;1.75;0.32;;;24.50;61.10;;;;;;5036044;28;20056;-69
2022/06/23 00:04:29;;;;;;;2.42;0.65;;;24.50;60.60;;;;;;5036219;28;20056;-69
2022/06/23 00:06:59;;;;;;;1.20;0.80;;;24.60;61.10;;;;;;5036138;28;20030;-69
2022/06/23 00:09:40;;;;;;;0.90;0.73;;;24.60;59.50;;;;;;5035872;28;20025;-69
2022/06/23 00:12:36;;;;;;;1.13;0.38;;;24.60;58.60;;;;;;5035841;28;20021;-69
2022/06/23 00:15:01;;;;;;;1.65;0.93;;;24.60;58.40;;;;;;5035778;28;20130;-69
2022/06/23 00:18:03;;;;;;;0.57;0.50;;;24.60;58.30;;;;;;5035628;28;20510;-69
2022/06/23 00:20:50;;;;;;;1.80;0.95;;;24.60;58.40;;;;;;5035478;28;20074;-69
2022/06/23 00:23:24;;;;;;;5.80;1.42;;;24.50;60.70;;;;;;5035625;28;20096;-69
2022/06/23 00:25:54;;;;;;;0.77;0.25;;;24.40;60.30;;;;;;5035776;28;20113;-69
2022/06/23 00:28:42;;;;;;;1.48;0.80;;;24.40;61.40;;;;;;5035538;28;20029;-69
2022/06/23 00:31:22;;;;;;;2.13;1.38;;;24.30;61.00;;;;;;5035525;28;20079;-69
2022/06/23 00:33:48;;;;;;;1.05;0.45;;;24.20;60.80;;;;;;5035277;28;20069;-69
2022/06/23 00:36:53;;;;;;;1.00;0.77;;;24.20;60.80;;;;;;5035268;28;20049;-69
2022/06/23 00:39:40;;;;;;;3.03;0.77;;;24.10;60.80;;;;;;5035131;28;20072;-69
2022/06/23 00:42:26;;;;;;;0.75;0.40;;;24.00;61.10;;;;;;5035383;28;20471;-69
2022/06/23 00:45:07;;;;;;;2.50;0.70;;;24.00;61.50;;;;;;5034836;28;20030;-69
2022/06/23 00:47:47;;;;;;;1.20;0.75;;;23.80;61.40;;;;;;5035208;28;20525;-69
2022/06/23 00:50:31;;;;;;;1.20;0.65;;;24.00;61.20;;;;;;5034012;28;20068;-69
2022/06/23 00:53:11;;;;;;;0.93;0.57;;;24.00;61.40;;;;;;5034910;28;20119;-69
2022/06/23 00:56:15;;;;;;;3.17;0.40;;;23.90;60.70;;;;;;5033568;28;20035;-69
2022/06/23 00:59:24;;;;;;;5.28;0.50;;;24.00;60.80;;;;;;5034853;28;20117;-69
2022/06/23 01:02:04;;;;;;;2.42;0.63;;;23.90;60.70;;;;;;5026873;28;20454;-69
2022/06/23 01:05:15;;;;;;;0.95;0.95;;;23.90;60.80;;;;;;5034848;28;20037;-69
2022/06/23 01:08:08;;;;;;;1.35;0.57;;;23.80;61.00;;;;;;5031616;28;20045;-69
2022/06/23 01:10:47;;;;;;;0.57;0.30;;;23.80;61.10;;;;;;5034944;28;20056;-69
2022/06/23 01:13:34;;;;;;;1.85;0.25;;;23.90;61.10;;;;;;5034543;28;20625;-69
2022/06/23 01:16:08;;;;;;;1.00;0.50;;;24.00;59.90;;;;;;5034607;28;20440;-69
2022/06/23 01:18:46;;;;;;;0.82;0.80;;;24.00;61.40;;;;;;5034544;28;20025;-69
2022/06/23 01:21:21;;;;;;;1.10;0.57;;;24.00;60.50;;;;;;5034392;28;20032;-69
2022/06/23 01:24:14;;;;;;;6.07;2.27;;;24.00;60.60;;;;;;5034245;28;20041;-69
2022/06/23 01:26:58;;;;;;;2.50;0.63;;;23.90;60.40;;;;;;5034466;28;20325;-69
2022/06/23 01:29:41;;;;;;;1.37;0.53;;;23.90;61.30;;;;;;5034557;28;20075;-69
2022/06/23 01:32:28;;;;;;;2.22;0.93;;;24.00;61.50;;;;;;5034164;28;20022;-69
2022/06/23 01:35:03;;;;;;;0.57;0.10;;;24.10;63.10;;;;;;5034147;28;20101;-69
2022/06/23 01:37:34;;;;;;;3.35;0.95;;;24.00;64.30;;;;;;5034017;28;20021;-69
2022/06/23 01:40:20;;;;;;;3.28;0.52;;;23.90;68.70;;;;;;5034268;28;20538;-69
2022/06/23 01:42:46;;;;;;;5.43;0.63;;;23.80;70.80;;;;;;5032819;28;20030;-69
2022/06/23 01:45:23;;;;;;;10.55;1.60;;;23.70;73.30;;;;;;5033930;28;20554;-69
2022/06/23 01:48:04;;;;;;;20.10;2.75;;;23.70;73.10;;;;;;5034274;28;20029;-69
2022/06/23 01:50:53;;;;;;;5.22;0.80;;;23.60;73.60;;;;;;5034298;28;20028;-69
2022/06/23 01:53:22;;;;;;;1.17;0.75;;;23.60;74.30;;;;;;5033627;28;20049;-69
2022/06/23 01:56:14;;;;;;;3.05;1.20;;;23.50;76.50;;;;;;5033736;28;20072;-69
2022/06/23 01:58:58;;;;;;;4.40;0.75;;;23.30;76.00;;;;;;5033039;28;20021;-69
2022/06/23 02:01:53;;;;;;;4.03;1.35;;;23.40;71.80;;;;;;5033727;28;20386;-69
2022/06/23 02:04:33;;;;;;;8.45;2.97;;;23.40;76.70;;;;;;5031902;28;20033;-69
2022/06/23 02:07:09;;;;;;;15.77;4.00;;;23.30;81.60;;;;;;5033627;28;20029;-69
2022/06/23 02:09:53;;;;;;;7.35;2.53;;;23.00;87.70;;;;;;5033486;28;20025;-69
2022/06/23 02:17:27;;;;;;;14.15;3.22;;;22.00;92.60;;;;;;5033231;28;20033;-69
2022/06/23 02:20:00;;;;;;;4.40;2.42;;;21.70;93.90;;;;;;5033414;28;20111;-69
2022/06/23 02:22:31;;;;;;;9.20;3.95;;;21.40;97.20;;;;;;5033586;28;20471;-69
2022/06/23 02:25:05;;;;;;;12.73;3.22;;;21.20;99.90;;;;;;5033480;28;20109;-69
2022/06/23 02:27:52;;;;;;;5.63;3.70;;;20.90;99.90;;;;;;5033226;28;20021;-69
2022/06/23 02:30:33;;;;;;;8.68;2.97;;;20.70;99.90;;;;;;5033338;28;20049;-69
2022/06/23 02:33:27;;;;;;;4.72;4.43;;;20.70;99.90;;;;;;5033251;28;20040;-69
2022/06/23 02:35:56;;;;;;;9.65;6.00;;;20.50;99.90;;;;;;5033279;28;20049;-69
2022/06/23 02:38:38;;;;;;;6.32;3.08;;;20.50;99.90;;;;;;5033009;28;20021;-69
2022/06/23 02:41:13;;;;;;;4.07;2.50;;;20.60;99.90;;;;;;5033087;28;20112;-69
2022/06/23 02:43:44;;;;;;;6.30;2.05;;;20.80;99.90;;;;;;5033202;28;20026;-69
2022/06/23 02:46:51;;;;;;;4.38;3.00;;;21.10;99.90;;;;;;5032917;28;20022;-69
2022/06/23 02:49:27;;;;;;;4.28;2.85;;;21.10;99.90;;;;;;5032891;28;20032;-69
2022/06/23 02:52:07;;;;;;;6.47;3.35;;;21.10;99.90;;;;;;5032661;28;20029;-69
2022/06/23 02:54:38;;;;;;;4.25;3.00;;;21.10;99.90;;;;;;5031626;28;20076;-69
2022/06/23 02:57:16;;;;;;;4.93;2.80;;;20.90;99.90;;;;;;5032939;28;20026;-69
2022/06/23 02:59:53;;;;;;;6.95;3.80;;;20.80;99.90;;;;;;5032775;28;20025;-69
2022/06/23 03:02:44;;;;;;;8.20;4.07;;;20.70;99.90;;;;;;5032856;28;20025;-69
2022/06/23 03:05:13;;;;;;;6.97;2.13;;;20.90;99.90;;;;;;5032993;28;20036;-69
2022/06/23 03:08:07;;;;;;;2.67;2.45;;;21.20;99.90;;;;;;5032687;28;20025;-69
2022/06/23 03:10:38;;;;;;;3.47;2.80;;;21.00;99.90;;;;;;5030644;28;20068;-69
2022/06/23 03:13:16;;;;;;;6.57;3.28;;;21.10;99.90;;;;;;5036852;28;20041;-69
2022/06/23 03:15:51;;;;;;;3.85;2.05;;;21.00;99.90;;;;;;5036790;28;20071;-69
2022/06/23 03:18:24;;;;;;;3.83;2.33;;;20.70;99.90;;;;;;5036755;28;20033;-69
2022/06/23 03:21:00;;;;;;;5.03;2.13;;;20.70;99.90;;;;;;5036642;28;20467;-69
2022/06/23 03:23:46;;;;;;;3.67;2.95;;;20.80;99.90;;;;;;5036732;28;20029;-69
2022/06/23 03:26:33;;;;;;;2.60;2.22;;;21.00;99.90;;;;;;5036814;28;20025;-69
2022/06/23 03:29:23;;;;;;;2.70;2.20;;;21.00;99.90;;;;;;5036696;28;20021;-69
2022/06/23 03:32:10;;;;;;;3.72;2.42;;;21.10;99.90;;;;;;5036389;28;20029;-69
2022/06/23 03:34:48;;;;;;;6.32;2.47;;;21.00;99.90;;;;;;5036336;28;20482;-69
2022/06/23 03:37:30;;;;;;;4.50;2.78;;;21.10;99.90;;;;;;5036359;28;20029;-69
2022/06/23 03:43:22;;;;;;;3.45;3.13;;;20.70;99.90;;;;;;5036484;28;20564;-70
2022/06/23 03:45:54;;;;;;;4.35;2.78;;;20.50;99.90;;;;;;5036125;28;20039;-69
2022/06/23 03:48:36;;;;;;;4.20;2.72;;;20.50;99.90;;;;;;5036316;28;20071;-69
2022/06/23 03:51:20;;;;;;;3.25;2.78;;;20.70;99.90;;;;;;5036353;28;20036;-69
2022/06/23 03:54:03;;;;;;;9.52;4.15;;;20.80;99.90;;;;;;5035871;28;20046;-69
2022/06/23 03:56:36;;;;;;;10.75;4.45;;;21.00;99.90;;;;;;5036348;28;20045;-69
2022/06/23 03:59:22;;;;;;;3.33;3.03;;;21.10;99.90;;;;;;5036224;28;20037;-69
2022/06/23 04:02:16;;;;;;;6.05;3.08;;;20.90;99.90;;;;;;5036096;28;20041;-69
2022/06/23 04:04:48;;;;;;;3.90;2.67;;;20.70;99.90;;;;;;5029906;28;20030;-69
2022/06/23 04:07:29;;;;;;;6.30;2.58;;;20.70;99.90;;;;;;5035895;28;20092;-69
2022/06/23 04:10:01;;;;;;;7.35;3.88;;;20.70;99.90;;;;;;5035775;28;20053;-69
2022/06/23 04:12:29;;;;;;;14.88;5.72;;;20.80;99.90;;;;;;5034594;28;20041;-69
2022/06/23 04:15:06;;;;;;;5.75;4.07;;;21.00;99.90;;;;;;5035889;28;21189;-69
2022/06/23 04:17:32;;;;;;;5.25;3.95;;;21.10;99.90;;;;;;5035742;28;20025;-69
2022/06/23 04:20:09;;;;;;;7.53;4.07;;;20.70;99.90;;;;;;5035084;28;20117;-69
2022/06/23 04:23:03;;;;;;;6.18;4.13;;;20.70;99.90;;;;;;5035638;28;20025;-70
2022/06/23 04:25:43;;;;;;;6.85;4.07;;;20.60;99.90;;;;;;5029616;28;20108;-70
2022/06/23 04:28:24;;;;;;;7.03;4.72;;;20.50;99.90;;;;;;5035574;28;20021;-70
2022/06/23 04:30:52;;;;;;;5.90;4.15;;;20.40;99.90;;;;;;5035419;28;20021;-70
2022/06/23 04:33:21;;;;;;;7.45;3.80;;;20.40;99.90;;;;;;5035457;28;20076;-70
2022/06/23 04:35:56;;;;;;;27.08;23.35;;;20.30;99.90;;;;;;5035299;28;20104;-69
2022/06/23 04:38:41;;;;;;;11.35;8.52;;;20.30;99.90;;;;;;5035380;28;20084;-70
2022/06/23 04:41:28;;;;;;;8.77;5.35;;;20.30;99.90;;;;;;5035198;28;20029;-70
2022/06/23 04:44:00;;;;;;;6.38;4.43;;;20.40;99.90;;;;;;5035292;28;20032;-70
2022/06/23 04:46:41;;;;;;;9.20;4.93;;;20.40;99.90;;;;;;5035280;28;20022;-70
2022/06/23 04:49:28;;;;;;;9.13;5.88;;;20.40;99.90;;;;;;5035281;28;20498;-70
2022/06/23 04:52:19;;;;;;;8.25;6.20;;;20.40;99.90;;;;;;5034915;28;20026;-70
2022/06/23 04:55:11;;;;;;;10.20;5.32;;;20.30;99.90;;;;;;5023069;28;20041;-70
2022/06/23 04:58:00;;;;;;;8.13;5.60;;;20.40;99.90;;;;;;5024359;28;20040;-70
2022/06/23 05:00:40;;;;;;;16.00;6.40;;;20.50;99.90;;;;;;5034830;28;20352;-70
2022/06/23 05:03:34;;;;;;;11.55;5.93;;;20.40;99.90;;;;;;5034888;28;20108;-69
2022/06/23 05:06:29;;;;;;;13.98;7.07;;;20.50;99.90;;;;;;5033515;28;20383;-69
2022/06/23 05:08:59;;;;;;;7.90;4.95;;;20.40;99.90;;;;;;5026375;28;20037;-69
2022/06/23 05:11:35;;;;;;;11.48;6.85;;;20.40;99.90;;;;;;5034756;28;20022;-69
2022/06/23 05:14:07;;;;;;;9.80;5.43;;;20.30;99.90;;;;;;5034504;28;20182;-69
2022/06/23 05:16:41;;;;;;;6.90;5.93;;;20.30;99.90;;;;;;5034774;28;20029;-69
2022/06/23 05:19:17;;;;;;;11.70;4.72;;;20.30;99.90;;;;;;5034610;28;20033;-70
2022/06/23 05:21:48;;;;;;;8.90;4.13;;;20.40;99.90;;;;;;5034518;28;20026;-70
2022/06/23 05:24:19;;;;;;;7.00;4.30;;;20.50;99.90;;;;;;5034545;28;20018;-70
2022/06/23 05:26:59;;;;;;;10.40;5.50;;;20.60;99.90;;;;;;5034234;28;20021;-69
2022/06/23 05:29:50;;;;;;;8.70;5.60;;;20.60;99.90;;;;;;5034412;28;20044;-69
2022/06/23 05:32:22;;;;;;;9.50;4.55;;;20.60;99.90;;;;;;5033477;28;20041;-69
2022/06/23 05:34:55;;;;;;;7.30;4.80;;;20.60;99.90;;;;;;5034069;28;20029;-69
2022/06/23 05:37:31;;;;;;;6.10;3.80;;;20.50;99.90;;;;;;5034401;28;20045;-70
2022/06/23 05:40:19;;;;;;;4.40;4.00;;;20.40;99.90;;;;;;5034176;28;20026;-70
2022/06/23 05:42:47;;;;;;;7.93;3.83;;;20.40;99.90;;;;;;5034175;28;20470;-70
2022/06/23 05:45:22;;;;;;;12.75;5.80;;;20.40;99.90;;;;;;5034139;28;20048;-70
2022/06/23 05:47:48;;;;;;;16.02;5.57;;;20.40;99.90;;;;;;5033881;28;20037;-70
2022/06/23 05:50:54;;;;;;;8.65;5.32;;;20.50;99.90;;;;;;5033937;28;20056;-70
2022/06/23 05:53:24;;;;;;;7.80;6.00;;;20.50;99.90;;;;;;5032971;28;20124;-70
2022/06/23 05:56:03;;;;;;;7.68;4.78;;;20.40;99.90;;;;;;5033759;28;20502;-70
2022/06/23 05:58:51;;;;;;;9.77;5.70;;;20.40;99.90;;;;;;5033966;28;20107;-70
2022/06/23 06:01:40;;;;;;;8.15;5.60;;;20.50;99.90;;;;;;5033680;28;20108;-70
2022/06/23 06:04:30;;;;;;;9.63;4.75;;;20.50;99.90;;;;;;5033607;28;20075;-70
2022/06/23 06:06:57;;;;;;;8.13;5.38;;;20.50;99.90;;;;;;5033370;28;20025;-70
2022/06/23 06:09:37;;;;;;;7.72;6.50;;;20.60;99.90;;;;;;5033621;28;20022;-70
2022/06/23 06:12:34;;;;;;;8.20;5.20;;;20.70;99.90;;;;;;5033376;28;20075;-71
2022/06/23 06:15:08;;;;;;;6.72;4.97;;;20.80;99.90;;;;;;5032832;28;20112;-71
2022/06/23 06:17:36;;;;;;;7.75;6.18;;;20.70;99.90;;;;;;5033316;28;20030;-72
2022/06/23 06:20:06;;;;;;;8.98;4.90;;;20.60;99.90;;;;;;5033426;28;20475;-71
2022/06/23 06:22:41;;;;;;;6.80;5.38;;;20.70;99.90;;;;;;5033277;28;20032;-70
2022/06/23 06:25:15;;;;;;;12.70;4.82;;;20.80;99.90;;;;;;5033197;28;20052;-70
2022/06/23 06:27:42;;;;;;;7.43;5.30;;;20.80;99.90;;;;;;5032637;28;20035;-70
2022/06/23 06:30:16;;;;;;;9.77;5.43;;;21.00;99.90;;;;;;5049139;28;20036;-70
2022/06/23 06:32:42;;;;;;;12.80;4.32;;;21.00;99.90;;;;;;5032957;28;20025;-70
2022/06/23 06:35:31;;;;;;;7.00;4.47;;;21.00;99.90;;;;;;5033227;28;20029;-70
2022/06/23 06:38:07;;;;;;;6.85;5.47;;;20.90;99.90;;;;;;5032891;28;20471;-69
2022/06/23 06:40:35;;;;;;;8.95;5.60;;;20.80;99.90;;;;;;5033141;28;20029;-69
2022/06/23 06:43:07;;;;;;;11.00;5.78;;;20.80;99.90;;;;;;5042692;28;20025;-70
2022/06/23 06:45:36;;;;;;;9.77;6.25;;;20.80;99.90;;;;;;5050891;28;20017;-71
2022/06/23 06:48:03;;;;;;;9.98;6.70;;;20.80;99.90;;;;;;5051202;28;20700;-70
2022/06/23 06:50:40;;;;;;;15.32;7.53;;;20.80;99.90;;;;;;5051292;28;20429;-69
2022/06/23 06:53:38;;;;;;;18.52;7.53;;;20.60;99.90;;;;;;5051721;28;20044;-70
2022/06/23 06:56:26;;;;;;;15.65;9.43;;;20.50;99.90;;;;;;5052385;28;20055;-69
2022/06/23 06:59:23;;;;;;;7.45;6.32;;;20.40;99.90;;;;;;5049915;28;20033;-70
2022/06/23 07:02:04;;;;;;;10.68;5.05;;;20.30;99.90;;;;;;5050998;28;20478;-69
2022/06/23 07:04:38;;;;;;;10.70;5.35;;;20.30;99.90;;;;;;5052186;28;20070;-69
2022/06/23 07:07:08;;;;;;;10.75;4.78;;;20.20;99.90;;;;;;5051982;28;20025;-70
2022/06/23 07:09:48;;;;;;;12.50;5.53;;;20.10;99.90;;;;;;5052230;28;20031;-70
2022/06/23 07:12:26;;;;;;;5.03;3.95;;;20.10;99.90;;;;;;5051772;28;20547;-70
2022/06/23 07:14:58;;;;;;;4.95;4.43;;;20.00;99.90;;;;;;5036371;28;20029;-70
2022/06/23 07:17:34;;;;;;;4.47;4.07;;;20.00;99.90;;;;;;5052702;28;20074;-70
2022/06/23 07:20:25;;;;;;;6.82;3.95;;;20.00;99.90;;;;;;5051099;28;20029;-70
2022/06/23 07:22:58;;;;;;;9.82;3.65;;;19.90;99.90;;;;;;5042180;28;20025;-70
2022/06/23 07:25:31;;;;;;;3.10;2.55;;;19.70;99.90;;;;;;5041801;28;20025;-70
2022/06/23 07:28:31;;;;;;;10.80;4.05;;;19.70;99.90;;;;;;5044649;28;20064;-71
2022/06/23 07:31:05;;;;;;;5.22;2.92;;;19.60;99.90;;;;;;5037979;28;20503;-71
2022/06/23 07:33:51;;;;;;;5.47;2.88;;;19.60;99.90;;;;;;5034085;28;20061;-71
2022/06/23 07:36:28;;;;;;;4.18;2.55;;;19.50;99.90;;;;;;5039777;28;20427;-71
2022/06/23 07:39:07;;;;;;;5.45;3.67;;;19.70;99.90;;;;;;5044474;28;20098;-70
2022/06/23 07:41:40;;;;;;;3.33;2.65;;;19.80;99.90;;;;;;5048783;28;20103;-70
2022/06/23 07:44:17;;;;;;;8.90;3.08;;;20.00;99.90;;;;;;5042636;28;20457;-71
2022/06/23 07:46:43;;;;;;;10.60;3.97;;;20.00;99.90;;;;;;5046464;28;20032;-70
2022/06/23 07:49:09;;;;;;;6.25;4.18;;;20.10;99.90;;;;;;5046212;28;20171;-72
2022/06/23 07:51:37;;;;;;;4.57;3.40;;;20.10;99.90;;;;;;5039094;28;20407;-71
2022/06/23 07:54:05;;;;;;;5.63;2.47;;;20.20;99.90;;;;;;5045735;28;20049;-71
2022/06/23 07:56:33;;;;;;;6.68;4.75;;;20.10;99.90;;;;;;5044310;28;20032;-71
2022/06/23 07:59:03;;;;;;;13.32;3.28;;;20.20;99.90;;;;;;5047294;28;20044;-71
2022/06/23 08:01:58;;;;;;;5.53;2.95;;;19.90;99.90;;;;;;5056011;28;20033;-71
2022/06/23 08:04:37;;;;;;;6.25;4.35;;;19.80;99.90;;;;;;5047700;28;20028;-71
2022/06/23 08:07:06;;;;;;;9.95;5.53;;;19.70;99.90;;;;;;5045536;28;20028;-72
2022/06/23 08:09:37;;;;;;;13.15;3.67;;;19.70;99.90;;;;;;5047350;28;20025;-71
2022/06/23 08:16:49;;;;;;;5.80;4.47;;;19.30;99.90;;;;;;5045634;28;20059;-71
2022/06/23 08:17:48;;;;;;;5.03;4.07;;;19.30;99.90;;;;;;5034982;28;20562;-71
2022/06/23 08:20:17;;;;;;;9.25;3.88;;;19.30;99.90;;;;;;5049894;28;20020;-71
2022/06/23 08:22:45;;;;;;;7.72;3.95;;;19.50;99.90;;;;;;5052636;28;20032;-72
2022/06/23 08:25:15;;;;;;;12.48;7.18;;;19.60;99.90;;;;;;5052417;28;20033;-71
2022/06/23 08:27:44;;;;;;;9.80;3.63;;;19.50;99.90;;;;;;5051126;28;20116;-71
2022/06/23 08:30:14;;;;;;;4.32;3.28;;;19.60;99.90;;;;;;5044819;28;20039;-74
2022/06/23 08:32:45;;;;;;;5.50;2.95;;;19.80;99.90;;;;;;5047834;28;20446;-74
2022/06/23 08:35:20;;;;;;;9.27;4.55;;;19.90;99.90;;;;;;5051374;28;20466;-73
2022/06/23 08:38:08;;;;;;;5.93;5.18;;;19.90;99.90;;;;;;5057465;28;20028;-71
2022/06/23 08:40:49;;;;;;;3.78;3.28;;;19.90;99.90;;;;;;5049349;28;20029;-71
2022/06/23 08:43:54;;;;;;;8.75;5.53;;;19.90;99.90;;;;;;5048978;28;20421;-73
